sensor_id;sensor_type;location;lat;lon;timestamp;temperature;humidity
15111;DHT22;7656;51.954;7.998;2023-02-24T00:03:23;6.60;99.90
15111;DHT22;7656;51.954;7.998;2023-02-24T00:07:44;6.50;99.90
15111;DHT22;7656;51.954;7.998;2023-02-24T00:12:09;6.50;99.90
15111;DHT22;7656;51.954;7.998;2023-02-24T00:16:33;6.40;99.90
15111;DHT22;7656;51.954;7.998;2023-02-24T00:20:55;6.30;99.90
15111;DHT22;7656;51.954;7.998;2023-02-24T00:25:17;6.20;99.90
15111;DHT22;7656;51.954;7.998;2023-02-24T00:29:39;6.20;99.90
15111;DHT22;7656;51.954;7.998;2023-02-24T00:34:01;6.20;99.90
15111;DHT22;7656;51.954;7.998;2023-02-24T00:38:22;6.20;99.90
15111;DHT22;7656;51.954;7.998;2023-02-24T00:42:46;6.20;99.90
15111;DHT22;7656;51.954;7.998;2023-02-24T00:47:09;6.10;99.90
15111;DHT22;7656;51.954;7.998;2023-02-24T00:51:37;6.10;99.90
15111;DHT22;7656;51.954;7.998;2023-02-24T00:56:00;6.00;99.90
15111;DHT22;7656;51.954;7.998;2023-02-24T01:00:22;5.90;99.90
15111;DHT22;7656;51.954;7.998;2023-02-24T01:04:44;5.80;99.90
15111;DHT22;7656;51.954;7.998;2023-02-24T01:09:13;5.80;99.90
15111;DHT22;7656;51.954;7.998;2023-02-24T01:13:36;5.80;99.90
15111;DHT22;7656;51.954;7.998;2023-02-24T01:17:57;5.80;99.90
15111;DHT22;7656;51.954;7.998;2023-02-24T01:22:19;5.90;99.90
15111;DHT22;7656;51.954;7.998;2023-02-24T01:26:41;5.90;99.90
15111;DHT22;7656;51.954;7.998;2023-02-24T01:31:04;6.00;99.90
15111;DHT22;7656;51.954;7.998;2023-02-24T01:35:26;6.00;99.90
15111;DHT22;7656;51.954;7.998;2023-02-24T01:39:47;6.10;99.90
15111;DHT22;7656;51.954;7.998;2023-02-24T01:48:34;6.20;99.90
15111;DHT22;7656;51.954;7.998;2023-02-24T01:52:59;6.10;99.90
15111;DHT22;7656;51.954;7.998;2023-02-24T01:57:25;6.10;99.90
15111;DHT22;7656;51.954;7.998;2023-02-24T02:01:49;6.10;99.90
15111;DHT22;7656;51.954;7.998;2023-02-24T02:06:15;6.10;99.90
15111;DHT22;7656;51.954;7.998;2023-02-24T02:10:42;6.10;99.90
15111;DHT22;7656;51.954;7.998;2023-02-24T02:15:05;6.10;99.90
15111;DHT22;7656;51.954;7.998;2023-02-24T02:34:28;6.20;99.90
15111;DHT22;7656;51.954;7.998;2023-02-24T02:39:30;6.10;99.90
15111;DHT22;7656;51.954;7.998;2023-02-24T02:44:27;6.10;99.90
15111;DHT22;7656;51.954;7.998;2023-02-24T02:48:56;6.10;99.90
15111;DHT22;7656;51.954;7.998;2023-02-24T02:53:23;6.00;99.90
15111;DHT22;7656;51.954;7.998;2023-02-24T02:57:51;6.00;99.90
15111;DHT22;7656;51.954;7.998;2023-02-24T03:02:14;6.00;99.90
15111;DHT22;7656;51.954;7.998;2023-02-24T03:06:51;6.00;99.90
15111;DHT22;7656;51.954;7.998;2023-02-24T03:11:17;5.90;99.90
15111;DHT22;7656;51.954;7.998;2023-02-24T03:15:40;5.80;99.90
15111;DHT22;7656;51.954;7.998;2023-02-24T03:20:09;5.70;99.90
15111;DHT22;7656;51.954;7.998;2023-02-24T03:24:37;5.50;99.90
15111;DHT22;7656;51.954;7.998;2023-02-24T03:29:32;5.40;99.90
15111;DHT22;7656;51.954;7.998;2023-02-24T03:34:04;5.20;99.90
15111;DHT22;7656;51.954;7.998;2023-02-24T03:38:32;5.10;99.90
15111;DHT22;7656;51.954;7.998;2023-02-24T03:42:59;5.00;99.90
15111;DHT22;7656;51.954;7.998;2023-02-24T03:47:25;4.90;99.90
15111;DHT22;7656;51.954;7.998;2023-02-24T04:01:28;4.70;99.90
15111;DHT22;7656;51.954;7.998;2023-02-24T04:06:20;4.80;99.90
15111;DHT22;7656;51.954;7.998;2023-02-24T04:11:01;4.80;99.90
15111;DHT22;7656;51.954;7.998;2023-02-24T04:15:40;4.80;99.90
15111;DHT22;7656;51.954;7.998;2023-02-24T04:20:06;4.80;99.90
15111;DHT22;7656;51.954;7.998;2023-02-24T04:24:55;4.70;99.90
15111;DHT22;7656;51.954;7.998;2023-02-24T04:29:22;4.70;99.90
15111;DHT22;7656;51.954;7.998;2023-02-24T04:33:45;4.70;99.90
15111;DHT22;7656;51.954;7.998;2023-02-24T04:38:12;4.60;99.90
15111;DHT22;7656;51.954;7.998;2023-02-24T04:42:34;4.50;99.90
15111;DHT22;7656;51.954;7.998;2023-02-24T04:46:55;4.40;99.90
15111;DHT22;7656;51.954;7.998;2023-02-24T04:51:16;4.40;99.90
15111;DHT22;7656;51.954;7.998;2023-02-24T04:55:47;4.40;99.90
15111;DHT22;7656;51.954;7.998;2023-02-24T05:00:09;4.40;99.90
15111;DHT22;7656;51.954;7.998;2023-02-24T05:04:50;4.30;99.90
15111;DHT22;7656;51.954;7.998;2023-02-24T05:09:16;4.30;99.90
15111;DHT22;7656;51.954;7.998;2023-02-24T05:13:37;4.20;99.90
15111;DHT22;7656;51.954;7.998;2023-02-24T05:18:00;4.20;99.90
15111;DHT22;7656;51.954;7.998;2023-02-24T05:22:27;4.30;99.90
15111;DHT22;7656;51.954;7.998;2023-02-24T05:26:48;4.40;99.90
15111;DHT22;7656;51.954;7.998;2023-02-24T05:31:18;4.40;99.90
15111;DHT22;7656;51.954;7.998;2023-02-24T05:35:39;4.50;99.90
15111;DHT22;7656;51.954;7.998;2023-02-24T05:40:01;4.50;99.90
15111;DHT22;7656;51.954;7.998;2023-02-24T05:44:25;4.60;99.90
15111;DHT22;7656;51.954;7.998;2023-02-24T05:48:49;4.60;99.90
15111;DHT22;7656;51.954;7.998;2023-02-24T05:53:12;4.60;99.90
15111;DHT22;7656;51.954;7.998;2023-02-24T05:57:33;4.70;99.90
15111;DHT22;7656;51.954;7.998;2023-02-24T06:01:55;4.70;99.90
15111;DHT22;7656;51.954;7.998;2023-02-24T06:06:16;4.70;99.90
15111;DHT22;7656;51.954;7.998;2023-02-24T06:10:38;4.70;99.90
15111;DHT22;7656;51.954;7.998;2023-02-24T06:15:02;4.70;99.90
15111;DHT22;7656;51.954;7.998;2023-02-24T06:19:27;4.70;99.90
15111;DHT22;7656;51.954;7.998;2023-02-24T06:23:51;4.70;99.90
15111;DHT22;7656;51.954;7.998;2023-02-24T06:28:12;4.80;99.90
15111;DHT22;7656;51.954;7.998;2023-02-24T06:32:33;4.80;99.90
15111;DHT22;7656;51.954;7.998;2023-02-24T06:36:55;4.90;99.90
15111;DHT22;7656;51.954;7.998;2023-02-24T06:41:18;4.80;99.90
15111;DHT22;7656;51.954;7.998;2023-02-24T06:45:39;4.80;99.90
15111;DHT22;7656;51.954;7.998;2023-02-24T06:50:00;4.80;99.90
15111;DHT22;7656;51.954;7.998;2023-02-24T06:54:22;4.90;99.90
15111;DHT22;7656;51.954;7.998;2023-02-24T06:58:53;4.90;99.90
15111;DHT22;7656;51.954;7.998;2023-02-24T07:03:19;4.90;99.90
15111;DHT22;7656;51.954;7.998;2023-02-24T07:07:40;4.80;99.90
15111;DHT22;7656;51.954;7.998;2023-02-24T07:12:05;4.80;99.90
15111;DHT22;7656;51.954;7.998;2023-02-24T07:16:27;4.80;99.90
15111;DHT22;7656;51.954;7.998;2023-02-24T07:20:48;4.90;99.90
15111;DHT22;7656;51.954;7.998;2023-02-24T07:25:09;5.00;99.90
15111;DHT22;7656;51.954;7.998;2023-02-24T07:29:50;5.00;99.90
15111;DHT22;7656;51.954;7.998;2023-02-24T07:34:11;5.20;99.90
15111;DHT22;7656;51.954;7.998;2023-02-24T07:38:38;5.00;99.90
15111;DHT22;7656;51.954;7.998;2023-02-24T07:43:00;5.10;99.90
15111;DHT22;7656;51.954;7.998;2023-02-24T07:47:21;5.00;99.90
15111;DHT22;7656;51.954;7.998;2023-02-24T07:51:42;4.80;99.90
15111;DHT22;7656;51.954;7.998;2023-02-24T07:56:08;4.90;99.90
15111;DHT22;7656;51.954;7.998;2023-02-24T08:00:33;4.80;99.90
15111;DHT22;7656;51.954;7.998;2023-02-24T08:05:10;4.90;99.90
15111;DHT22;7656;51.954;7.998;2023-02-24T08:09:32;5.00;99.90
15111;DHT22;7656;51.954;7.998;2023-02-24T08:14:05;5.10;99.90
15111;DHT22;7656;51.954;7.998;2023-02-24T08:18:33;5.20;99.90
15111;DHT22;7656;51.954;7.998;2023-02-24T08:22:57;5.10;99.90
15111;DHT22;7656;51.954;7.998;2023-02-24T08:27:19;4.90;99.90
15111;DHT22;7656;51.954;7.998;2023-02-24T08:31:43;5.00;99.90
15111;DHT22;7656;51.954;7.998;2023-02-24T08:36:04;4.90;99.90
15111;DHT22;7656;51.954;7.998;2023-02-24T08:40:37;5.00;99.90
15111;DHT22;7656;51.954;7.998;2023-02-24T08:45:09;4.90;99.90
15111;DHT22;7656;51.954;7.998;2023-02-24T08:49:30;5.00;99.90
15111;DHT22;7656;51.954;7.998;2023-02-24T08:54:17;5.10;99.90
15111;DHT22;7656;51.954;7.998;2023-02-24T08:58:46;5.10;99.90
15111;DHT22;7656;51.954;7.998;2023-02-24T09:03:07;4.80;99.90
15111;DHT22;7656;51.954;7.998;2023-02-24T09:07:30;4.70;99.90
15111;DHT22;7656;51.954;7.998;2023-02-24T09:11:58;4.90;99.90
15111;DHT22;7656;51.954;7.998;2023-02-24T09:16:21;4.90;99.90
15111;DHT22;7656;51.954;7.998;2023-02-24T09:20:43;5.00;99.90
15111;DHT22;7656;51.954;7.998;2023-02-24T09:25:16;4.80;99.90
15111;DHT22;7656;51.954;7.998;2023-02-24T09:30:00;4.50;99.90
15111;DHT22;7656;51.954;7.998;2023-02-24T09:34:27;4.40;99.90
15111;DHT22;7656;51.954;7.998;2023-02-24T09:38:51;4.50;99.90
15111;DHT22;7656;51.954;7.998;2023-02-24T09:43:25;4.70;99.90
15111;DHT22;7656;51.954;7.998;2023-02-24T09:47:47;5.00;99.90
15111;DHT22;7656;51.954;7.998;2023-02-24T09:52:16;5.10;99.90
15111;DHT22;7656;51.954;7.998;2023-02-24T09:56:44;5.20;99.90
15111;DHT22;7656;51.954;7.998;2023-02-24T10:06:03;5.00;99.90
15111;DHT22;7656;51.954;7.998;2023-02-24T10:10:33;4.90;99.90
15111;DHT22;7656;51.954;7.998;2023-02-24T10:20:13;5.00;99.90
15111;DHT22;7656;51.954;7.998;2023-02-24T10:25:39;5.30;99.90
15111;DHT22;7656;51.954;7.998;2023-02-24T10:30:15;5.40;99.90
15111;DHT22;7656;51.954;7.998;2023-02-24T10:35:00;5.20;99.90
15111;DHT22;7656;51.954;7.998;2023-02-24T10:39:24;5.20;99.90
15111;DHT22;7656;51.954;7.998;2023-02-24T10:43:55;5.20;99.90
15111;DHT22;7656;51.954;7.998;2023-02-24T10:48:19;5.30;99.90
15111;DHT22;7656;51.954;7.998;2023-02-24T10:52:46;5.10;99.90
15111;DHT22;7656;51.954;7.998;2023-02-24T10:57:30;5.20;99.90
15111;DHT22;7656;51.954;7.998;2023-02-24T11:02:12;5.30;99.90
15111;DHT22;7656;51.954;7.998;2023-02-24T11:06:49;5.40;99.90
15111;DHT22;7656;51.954;7.998;2023-02-24T11:11:18;5.10;99.90
15111;DHT22;7656;51.954;7.998;2023-02-24T11:15:52;5.10;99.90
15111;DHT22;7656;51.954;7.998;2023-02-24T11:20:35;5.20;99.90
15111;DHT22;7656;51.954;7.998;2023-02-24T11:25:04;5.20;99.90
15111;DHT22;7656;51.954;7.998;2023-02-24T11:43:35;4.90;99.90
15111;DHT22;7656;51.954;7.998;2023-02-24T11:48:03;5.00;99.90
15111;DHT22;7656;51.954;7.998;2023-02-24T11:52:34;4.90;99.90
15111;DHT22;7656;51.954;7.998;2023-02-24T11:56:58;4.90;99.90
15111;DHT22;7656;51.954;7.998;2023-02-24T12:01:34;4.80;99.90
15111;DHT22;7656;51.954;7.998;2023-02-24T12:06:15;4.90;99.90
15111;DHT22;7656;51.954;7.998;2023-02-24T12:10:52;5.10;99.90
15111;DHT22;7656;51.954;7.998;2023-02-24T12:15:28;4.80;99.90
15111;DHT22;7656;51.954;7.998;2023-02-24T12:24:48;4.80;99.90
15111;DHT22;7656;51.954;7.998;2023-02-24T12:43:39;4.60;99.90
15111;DHT22;7656;51.954;7.998;2023-02-24T13:07:51;4.70;99.90
15111;DHT22;7656;51.954;7.998;2023-02-24T13:12:51;4.80;99.90
15111;DHT22;7656;51.954;7.998;2023-02-24T13:17:22;4.70;99.90
15111;DHT22;7656;51.954;7.998;2023-02-24T13:26:32;4.70;99.90
15111;DHT22;7656;51.954;7.998;2023-02-24T13:39:44;4.90;99.90
15111;DHT22;7656;51.954;7.998;2023-02-24T13:48:53;4.80;99.90
15111;DHT22;7656;51.954;7.998;2023-02-24T13:53:30;4.90;99.90
15111;DHT22;7656;51.954;7.998;2023-02-24T14:02:48;5.40;99.90
15111;DHT22;7656;51.954;7.998;2023-02-24T14:07:21;5.30;99.90
15111;DHT22;7656;51.954;7.998;2023-02-24T14:11:43;5.20;99.90
15111;DHT22;7656;51.954;7.998;2023-02-24T14:16:08;5.20;99.90
15111;DHT22;7656;51.954;7.998;2023-02-24T14:20:34;5.30;99.90
15111;DHT22;7656;51.954;7.998;2023-02-24T14:25:04;5.60;99.90
15111;DHT22;7656;51.954;7.998;2023-02-24T14:29:30;5.40;99.90
15111;DHT22;7656;51.954;7.998;2023-02-24T14:34:00;5.50;99.90
15111;DHT22;7656;51.954;7.998;2023-02-24T14:38:37;5.70;99.90
15111;DHT22;7656;51.954;7.998;2023-02-24T14:42:59;5.80;99.90
15111;DHT22;7656;51.954;7.998;2023-02-24T14:47:22;5.90;99.90
15111;DHT22;7656;51.954;7.998;2023-02-24T14:51:46;5.90;99.90
15111;DHT22;7656;51.954;7.998;2023-02-24T14:56:10;6.00;99.90
15111;DHT22;7656;51.954;7.998;2023-02-24T15:00:36;6.00;99.90
15111;DHT22;7656;51.954;7.998;2023-02-24T15:04:59;5.70;99.90
15111;DHT22;7656;51.954;7.998;2023-02-24T15:09:23;5.80;99.90
15111;DHT22;7656;51.954;7.998;2023-02-24T15:14:36;5.80;99.90
15111;DHT22;7656;51.954;7.998;2023-02-24T15:18:40;6.00;99.90
15111;DHT22;7656;51.954;7.998;2023-02-24T15:23:01;6.10;99.90
15111;DHT22;7656;51.954;7.998;2023-02-24T15:27:26;6.10;99.90
15111;DHT22;7656;51.954;7.998;2023-02-24T15:31:48;5.90;99.90
15111;DHT22;7656;51.954;7.998;2023-02-24T15:36:17;5.90;99.90
15111;DHT22;7656;51.954;7.998;2023-02-24T15:40:39;6.00;99.90
15111;DHT22;7656;51.954;7.998;2023-02-24T15:45:03;6.10;99.90
15111;DHT22;7656;51.954;7.998;2023-02-24T15:49:26;6.40;99.90
15111;DHT22;7656;51.954;7.998;2023-02-24T15:53:47;6.40;99.90
15111;DHT22;7656;51.954;7.998;2023-02-24T15:58:15;6.40;99.90
15111;DHT22;7656;51.954;7.998;2023-02-24T16:02:38;6.50;99.90
15111;DHT22;7656;51.954;7.998;2023-02-24T16:07:00;6.60;99.90
15111;DHT22;7656;51.954;7.998;2023-02-24T16:11:24;6.60;99.90
15111;DHT22;7656;51.954;7.998;2023-02-24T16:15:48;6.80;99.90
15111;DHT22;7656;51.954;7.998;2023-02-24T16:20:21;6.80;99.90
15111;DHT22;7656;51.954;7.998;2023-02-24T16:24:47;6.80;99.90
15111;DHT22;7656;51.954;7.998;2023-02-24T16:29:13;6.60;99.90
15111;DHT22;7656;51.954;7.998;2023-02-24T16:33:35;6.70;99.90
15111;DHT22;7656;51.954;7.998;2023-02-24T16:37:56;6.80;99.90
15111;DHT22;7656;51.954;7.998;2023-02-24T16:42:17;6.90;99.90
15111;DHT22;7656;51.954;7.998;2023-02-24T16:46:38;7.00;99.90
15111;DHT22;7656;51.954;7.998;2023-02-24T16:51:04;7.00;99.90
15111;DHT22;7656;51.954;7.998;2023-02-24T16:55:27;7.00;99.90
15111;DHT22;7656;51.954;7.998;2023-02-24T16:59:48;7.00;99.90
15111;DHT22;7656;51.954;7.998;2023-02-24T17:04:09;7.00;99.90
15111;DHT22;7656;51.954;7.998;2023-02-24T17:08:31;6.90;99.90
15111;DHT22;7656;51.954;7.998;2023-02-24T17:12:52;7.00;99.90
15111;DHT22;7656;51.954;7.998;2023-02-24T17:17:13;7.00;99.90
15111;DHT22;7656;51.954;7.998;2023-02-24T17:21:41;6.90;99.90
15111;DHT22;7656;51.954;7.998;2023-02-24T17:26:04;6.30;99.90
15111;DHT22;7656;51.954;7.998;2023-02-24T17:30:28;6.00;99.90
15111;DHT22;7656;51.954;7.998;2023-02-24T17:34:51;5.70;99.90
15111;DHT22;7656;51.954;7.998;2023-02-24T17:39:12;5.70;99.90
15111;DHT22;7656;51.954;7.998;2023-02-24T17:43:33;5.90;99.90
15111;DHT22;7656;51.954;7.998;2023-02-24T17:47:54;6.00;99.90
15111;DHT22;7656;51.954;7.998;2023-02-24T17:52:15;6.00;99.90
15111;DHT22;7656;51.954;7.998;2023-02-24T17:56:37;5.90;99.90
15111;DHT22;7656;51.954;7.998;2023-02-24T18:00:59;5.80;99.90
15111;DHT22;7656;51.954;7.998;2023-02-24T18:05:21;5.90;99.90
15111;DHT22;7656;51.954;7.998;2023-02-24T18:09:42;5.80;99.90
15111;DHT22;7656;51.954;7.998;2023-02-24T18:14:05;5.60;99.90
15111;DHT22;7656;51.954;7.998;2023-02-24T18:18:26;5.80;99.90
15111;DHT22;7656;51.954;7.998;2023-02-24T18:22:49;5.70;99.90
15111;DHT22;7656;51.954;7.998;2023-02-24T18:27:10;5.60;99.90
15111;DHT22;7656;51.954;7.998;2023-02-24T18:31:32;5.50;99.90
15111;DHT22;7656;51.954;7.998;2023-02-24T18:36:00;5.60;99.90
15111;DHT22;7656;51.954;7.998;2023-02-24T18:40:23;5.60;99.90
15111;DHT22;7656;51.954;7.998;2023-02-24T18:44:45;5.50;99.90
15111;DHT22;7656;51.954;7.998;2023-02-24T18:49:06;5.50;99.90
15111;DHT22;7656;51.954;7.998;2023-02-24T18:53:31;5.40;99.90
15111;DHT22;7656;51.954;7.998;2023-02-24T18:57:56;5.30;99.90
15111;DHT22;7656;51.954;7.998;2023-02-24T19:02:17;5.30;99.90
15111;DHT22;7656;51.954;7.998;2023-02-24T19:06:38;5.20;99.90
15111;DHT22;7656;51.954;7.998;2023-02-24T19:11:15;5.30;99.90
15111;DHT22;7656;51.954;7.998;2023-02-24T19:15:37;5.20;99.90
15111;DHT22;7656;51.954;7.998;2023-02-24T19:19:58;5.00;99.90
15111;DHT22;7656;51.954;7.998;2023-02-24T19:24:19;4.90;99.90
15111;DHT22;7656;51.954;7.998;2023-02-24T19:28:41;4.90;99.90
15111;DHT22;7656;51.954;7.998;2023-02-24T19:33:02;5.00;99.90
15111;DHT22;7656;51.954;7.998;2023-02-24T19:37:23;5.10;99.90
15111;DHT22;7656;51.954;7.998;2023-02-24T19:41:44;5.10;99.90
15111;DHT22;7656;51.954;7.998;2023-02-24T19:46:07;5.30;99.90
15111;DHT22;7656;51.954;7.998;2023-02-24T19:50:29;5.40;99.90
15111;DHT22;7656;51.954;7.998;2023-02-24T19:54:50;5.50;99.90
15111;DHT22;7656;51.954;7.998;2023-02-24T19:59:11;5.50;99.90
15111;DHT22;7656;51.954;7.998;2023-02-24T20:03:32;5.40;99.90
15111;DHT22;7656;51.954;7.998;2023-02-24T20:07:53;5.40;99.90
15111;DHT22;7656;51.954;7.998;2023-02-24T20:12:14;5.40;99.90
15111;DHT22;7656;51.954;7.998;2023-02-24T20:16:39;5.30;99.90
15111;DHT22;7656;51.954;7.998;2023-02-24T20:21:01;5.20;99.90
15111;DHT22;7656;51.954;7.998;2023-02-24T20:25:23;5.20;99.90
15111;DHT22;7656;51.954;7.998;2023-02-24T20:29:44;5.10;99.90
15111;DHT22;7656;51.954;7.998;2023-02-24T20:34:06;5.10;99.90
15111;DHT22;7656;51.954;7.998;2023-02-24T20:38:30;5.20;99.90
15111;DHT22;7656;51.954;7.998;2023-02-24T20:42:52;5.20;99.90
15111;DHT22;7656;51.954;7.998;2023-02-24T20:47:13;5.10;99.90
15111;DHT22;7656;51.954;7.998;2023-02-24T20:51:35;5.10;99.90
15111;DHT22;7656;51.954;7.998;2023-02-24T20:56:01;4.90;99.90
15111;DHT22;7656;51.954;7.998;2023-02-24T21:00:24;4.90;99.90
15111;DHT22;7656;51.954;7.998;2023-02-24T21:04:45;4.80;99.90
15111;DHT22;7656;51.954;7.998;2023-02-24T21:09:06;4.80;99.90
15111;DHT22;7656;51.954;7.998;2023-02-24T21:13:27;4.80;99.90
15111;DHT22;7656;51.954;7.998;2023-02-24T21:17:48;4.80;99.90
15111;DHT22;7656;51.954;7.998;2023-02-24T21:22:09;4.90;99.90
15111;DHT22;7656;51.954;7.998;2023-02-24T21:26:30;4.80;99.90
15111;DHT22;7656;51.954;7.998;2023-02-24T21:30:52;4.80;99.90
15111;DHT22;7656;51.954;7.998;2023-02-24T21:35:13;4.80;99.90
15111;DHT22;7656;51.954;7.998;2023-02-24T21:39:34;4.90;99.90
15111;DHT22;7656;51.954;7.998;2023-02-24T21:43:55;4.80;99.90
15111;DHT22;7656;51.954;7.998;2023-02-24T21:48:16;4.80;99.90
15111;DHT22;7656;51.954;7.998;2023-02-24T21:52:38;4.70;99.90
15111;DHT22;7656;51.954;7.998;2023-02-24T21:56:59;4.80;99.90
15111;DHT22;7656;51.954;7.998;2023-02-24T22:01:24;4.80;99.90
15111;DHT22;7656;51.954;7.998;2023-02-24T22:05:56;5.00;99.90
15111;DHT22;7656;51.954;7.998;2023-02-24T22:10:20;5.20;99.90
15111;DHT22;7656;51.954;7.998;2023-02-24T22:14:42;5.10;99.90
15111;DHT22;7656;51.954;7.998;2023-02-24T22:19:03;5.20;99.90
15111;DHT22;7656;51.954;7.998;2023-02-24T22:23:24;5.10;99.90
15111;DHT22;7656;51.954;7.998;2023-02-24T22:27:45;5.10;99.90
15111;DHT22;7656;51.954;7.998;2023-02-24T22:32:06;5.20;99.90
15111;DHT22;7656;51.954;7.998;2023-02-24T22:36:32;5.10;99.90
15111;DHT22;7656;51.954;7.998;2023-02-24T22:41:01;5.10;99.90
15111;DHT22;7656;51.954;7.998;2023-02-24T22:45:24;5.10;99.90
15111;DHT22;7656;51.954;7.998;2023-02-24T22:49:45;5.10;99.90
15111;DHT22;7656;51.954;7.998;2023-02-24T22:54:06;5.10;99.90
15111;DHT22;7656;51.954;7.998;2023-02-24T22:58:28;5.00;99.90
15111;DHT22;7656;51.954;7.998;2023-02-24T23:02:49;5.10;99.90
15111;DHT22;7656;51.954;7.998;2023-02-24T23:07:10;5.00;99.90
15111;DHT22;7656;51.954;7.998;2023-02-24T23:11:41;5.00;99.90
15111;DHT22;7656;51.954;7.998;2023-02-24T23:16:02;4.90;99.90
15111;DHT22;7656;51.954;7.998;2023-02-24T23:20:24;5.00;99.90
15111;DHT22;7656;51.954;7.998;2023-02-24T23:24:45;5.10;99.90
15111;DHT22;7656;51.954;7.998;2023-02-24T23:29:08;5.00;99.90
15111;DHT22;7656;51.954;7.998;2023-02-24T23:33:30;4.90;99.90
15111;DHT22;7656;51.954;7.998;2023-02-24T23:37:51;5.00;99.90
15111;DHT22;7656;51.954;7.998;2023-02-24T23:42:12;5.10;99.90
15111;DHT22;7656;51.954;7.998;2023-02-24T23:46:34;5.20;99.90
15111;DHT22;7656;51.954;7.998;2023-02-24T23:50:56;5.30;99.90
15111;DHT22;7656;51.954;7.998;2023-02-24T23:55:17;4.90;99.90
15111;DHT22;7656;51.954;7.998;2023-02-24T23:59:38;4.80;99.90
